sensor_id;sensor_type;location;lat;lon;timestamp;P1;durP1;ratioP1;P2;durP2;ratioP2
46757;SDS011;32509;47.750;-3.396;2023-07-02T00:01:41;28.13;;;12.95;;
46757;SDS011;32509;47.750;-3.396;2023-07-02T00:04:07;27.40;;;13.73;;
46757;SDS011;32509;47.750;-3.396;2023-07-02T00:06:38;24.77;;;11.57;;
46757;SDS011;32509;47.750;-3.396;2023-07-02T00:09:05;33.25;;;13.13;;
46757;SDS011;32509;47.750;-3.396;2023-07-02T00:11:32;25.77;;;12.63;;
46757;SDS011;32509;47.750;-3.396;2023-07-02T00:13:58;36.65;;;14.75;;
46757;SDS011;32509;47.750;-3.396;2023-07-02T00:16:23;26.65;;;12.10;;
46757;SDS011;32509;47.750;-3.396;2023-07-02T00:18:49;31.63;;;13.80;;
46757;SDS011;32509;47.750;-3.396;2023-07-02T00:21:18;27.40;;;16.80;;
46757;SDS011;32509;47.750;-3.396;2023-07-02T00:23:45;25.55;;;13.57;;
46757;SDS011;32509;47.750;-3.396;2023-07-02T00:26:12;23.65;;;12.43;;
46757;SDS011;32509;47.750;-3.396;2023-07-02T00:28:38;21.58;;;12.68;;
46757;SDS011;32509;47.750;-3.396;2023-07-02T00:31:03;32.40;;;15.27;;
46757;SDS011;32509;47.750;-3.396;2023-07-02T00:33:30;33.33;;;13.52;;
46757;SDS011;32509;47.750;-3.396;2023-07-02T00:35:56;32.08;;;16.48;;
46757;SDS011;32509;47.750;-3.396;2023-07-02T00:38:25;29.65;;;13.98;;
46757;SDS011;32509;47.750;-3.396;2023-07-02T00:40:51;35.65;;;14.80;;
46757;SDS011;32509;47.750;-3.396;2023-07-02T00:43:17;33.67;;;15.98;;
46757;SDS011;32509;47.750;-3.396;2023-07-02T00:45:44;32.35;;;14.55;;
46757;SDS011;32509;47.750;-3.396;2023-07-02T00:48:10;35.17;;;16.60;;
46757;SDS011;32509;47.750;-3.396;2023-07-02T00:50:36;27.50;;;15.10;;
46757;SDS011;32509;47.750;-3.396;2023-07-02T00:53:04;32.75;;;16.30;;
46757;SDS011;32509;47.750;-3.396;2023-07-02T00:55:30;33.75;;;13.30;;
46757;SDS011;32509;47.750;-3.396;2023-07-02T00:57:55;25.77;;;13.07;;
46757;SDS011;32509;47.750;-3.396;2023-07-02T01:00:24;32.00;;;16.38;;
46757;SDS011;32509;47.750;-3.396;2023-07-02T01:02:53;32.88;;;16.23;;
46757;SDS011;32509;47.750;-3.396;2023-07-02T01:05:22;32.40;;;16.17;;
46757;SDS011;32509;47.750;-3.396;2023-07-02T01:07:48;33.05;;;15.25;;
46757;SDS011;32509;47.750;-3.396;2023-07-02T01:10:14;36.20;;;15.80;;
46757;SDS011;32509;47.750;-3.396;2023-07-02T01:12:40;37.00;;;14.50;;
46757;SDS011;32509;47.750;-3.396;2023-07-02T01:15:06;34.72;;;16.23;;
46757;SDS011;32509;47.750;-3.396;2023-07-02T01:17:33;34.05;;;15.65;;
46757;SDS011;32509;47.750;-3.396;2023-07-02T01:20:06;34.65;;;15.20;;
46757;SDS011;32509;47.750;-3.396;2023-07-02T01:22:33;30.35;;;14.32;;
46757;SDS011;32509;47.750;-3.396;2023-07-02T01:25:00;32.15;;;15.40;;
46757;SDS011;32509;47.750;-3.396;2023-07-02T01:27:29;31.27;;;15.25;;
46757;SDS011;32509;47.750;-3.396;2023-07-02T01:29:55;28.48;;;13.90;;
46757;SDS011;32509;47.750;-3.396;2023-07-02T01:32:21;33.83;;;14.60;;
46757;SDS011;32509;47.750;-3.396;2023-07-02T01:34:47;36.60;;;15.15;;
46757;SDS011;32509;47.750;-3.396;2023-07-02T01:37:16;37.20;;;16.13;;
46757;SDS011;32509;47.750;-3.396;2023-07-02T01:39:43;30.58;;;15.27;;
46757;SDS011;32509;47.750;-3.396;2023-07-02T01:42:09;26.88;;;15.55;;
46757;SDS011;32509;47.750;-3.396;2023-07-02T01:44:37;33.92;;;15.77;;
46757;SDS011;32509;47.750;-3.396;2023-07-02T01:47:03;28.75;;;13.65;;
46757;SDS011;32509;47.750;-3.396;2023-07-02T01:49:30;27.55;;;14.63;;
46757;SDS011;32509;47.750;-3.396;2023-07-02T01:51:56;33.22;;;15.23;;
46757;SDS011;32509;47.750;-3.396;2023-07-02T01:54:23;31.63;;;12.88;;
46757;SDS011;32509;47.750;-3.396;2023-07-02T01:56:54;24.23;;;12.70;;
46757;SDS011;32509;47.750;-3.396;2023-07-02T01:59:20;28.13;;;13.75;;
46757;SDS011;32509;47.750;-3.396;2023-07-02T02:01:45;29.65;;;13.90;;
46757;SDS011;32509;47.750;-3.396;2023-07-02T02:04:13;26.30;;;13.35;;
46757;SDS011;32509;47.750;-3.396;2023-07-02T02:06:39;26.75;;;13.57;;
46757;SDS011;32509;47.750;-3.396;2023-07-02T02:09:06;27.48;;;13.55;;
46757;SDS011;32509;47.750;-3.396;2023-07-02T02:11:33;24.05;;;14.93;;
46757;SDS011;32509;47.750;-3.396;2023-07-02T02:14:00;31.45;;;13.77;;
46757;SDS011;32509;47.750;-3.396;2023-07-02T02:16:28;31.95;;;14.23;;
46757;SDS011;32509;47.750;-3.396;2023-07-02T02:18:54;29.63;;;14.88;;
46757;SDS011;32509;47.750;-3.396;2023-07-02T02:21:20;23.02;;;12.13;;
46757;SDS011;32509;47.750;-3.396;2023-07-02T02:23:46;25.95;;;13.20;;
46757;SDS011;32509;47.750;-3.396;2023-07-02T02:26:13;24.38;;;13.13;;
46757;SDS011;32509;47.750;-3.396;2023-07-02T02:28:39;25.08;;;13.43;;
46757;SDS011;32509;47.750;-3.396;2023-07-02T02:31:06;22.83;;;12.68;;
46757;SDS011;32509;47.750;-3.396;2023-07-02T02:33:32;26.20;;;14.18;;
46757;SDS011;32509;47.750;-3.396;2023-07-02T02:35:58;24.98;;;12.40;;
46757;SDS011;32509;47.750;-3.396;2023-07-02T02:38:23;25.45;;;13.05;;
46757;SDS011;32509;47.750;-3.396;2023-07-02T02:40:49;26.67;;;12.50;;
46757;SDS011;32509;47.750;-3.396;2023-07-02T02:43:15;22.17;;;11.85;;
46757;SDS011;32509;47.750;-3.396;2023-07-02T02:45:43;30.95;;;13.98;;
46757;SDS011;32509;47.750;-3.396;2023-07-02T02:48:09;25.23;;;12.70;;
46757;SDS011;32509;47.750;-3.396;2023-07-02T02:50:35;21.23;;;13.57;;
46757;SDS011;32509;47.750;-3.396;2023-07-02T02:53:06;28.98;;;13.88;;
46757;SDS011;32509;47.750;-3.396;2023-07-02T02:55:32;26.98;;;13.07;;
46757;SDS011;32509;47.750;-3.396;2023-07-02T02:57:58;24.75;;;12.40;;
46757;SDS011;32509;47.750;-3.396;2023-07-02T03:00:24;25.13;;;13.85;;
46757;SDS011;32509;47.750;-3.396;2023-07-02T03:02:50;25.88;;;13.20;;
46757;SDS011;32509;47.750;-3.396;2023-07-02T03:05:16;21.10;;;12.25;;
46757;SDS011;32509;47.750;-3.396;2023-07-02T03:07:41;21.58;;;10.93;;
46757;SDS011;32509;47.750;-3.396;2023-07-02T03:10:08;29.17;;;14.35;;
46757;SDS011;32509;47.750;-3.396;2023-07-02T03:12:34;28.63;;;13.82;;
46757;SDS011;32509;47.750;-3.396;2023-07-02T03:14:59;26.20;;;12.50;;
46757;SDS011;32509;47.750;-3.396;2023-07-02T03:17:25;27.13;;;12.40;;
46757;SDS011;32509;47.750;-3.396;2023-07-02T03:19:51;21.27;;;11.52;;
46757;SDS011;32509;47.750;-3.396;2023-07-02T03:22:17;21.30;;;12.18;;
46757;SDS011;32509;47.750;-3.396;2023-07-02T03:24:43;25.75;;;13.00;;
46757;SDS011;32509;47.750;-3.396;2023-07-02T03:27:09;22.35;;;11.85;;
46757;SDS011;32509;47.750;-3.396;2023-07-02T03:29:35;28.85;;;13.10;;
46757;SDS011;32509;47.750;-3.396;2023-07-02T03:32:03;21.63;;;11.70;;
46757;SDS011;32509;47.750;-3.396;2023-07-02T03:34:29;25.52;;;12.93;;
46757;SDS011;32509;47.750;-3.396;2023-07-02T03:36:56;24.17;;;12.75;;
46757;SDS011;32509;47.750;-3.396;2023-07-02T03:39:21;21.45;;;11.50;;
46757;SDS011;32509;47.750;-3.396;2023-07-02T03:41:47;18.92;;;11.02;;
46757;SDS011;32509;47.750;-3.396;2023-07-02T03:44:13;24.52;;;12.52;;
46757;SDS011;32509;47.750;-3.396;2023-07-02T03:46:38;25.27;;;13.27;;
46757;SDS011;32509;47.750;-3.396;2023-07-02T03:49:04;21.40;;;13.70;;
46757;SDS011;32509;47.750;-3.396;2023-07-02T03:51:30;29.02;;;14.38;;
46757;SDS011;32509;47.750;-3.396;2023-07-02T03:53:57;20.88;;;11.73;;
46757;SDS011;32509;47.750;-3.396;2023-07-02T03:56:24;27.67;;;13.55;;
46757;SDS011;32509;47.750;-3.396;2023-07-02T03:58:50;24.20;;;12.63;;
46757;SDS011;32509;47.750;-3.396;2023-07-02T04:01:15;18.08;;;12.48;;
46757;SDS011;32509;47.750;-3.396;2023-07-02T04:03:51;23.40;;;12.80;;
46757;SDS011;32509;47.750;-3.396;2023-07-02T04:06:18;25.50;;;11.82;;
46757;SDS011;32509;47.750;-3.396;2023-07-02T04:08:44;24.13;;;12.85;;
46757;SDS011;32509;47.750;-3.396;2023-07-02T04:11:10;22.35;;;12.15;;
46757;SDS011;32509;47.750;-3.396;2023-07-02T04:13:37;23.35;;;13.90;;
46757;SDS011;32509;47.750;-3.396;2023-07-02T04:16:04;21.50;;;11.75;;
46757;SDS011;32509;47.750;-3.396;2023-07-02T04:18:30;26.27;;;12.75;;
46757;SDS011;32509;47.750;-3.396;2023-07-02T04:20:56;26.38;;;14.25;;
46757;SDS011;32509;47.750;-3.396;2023-07-02T04:23:23;20.63;;;12.65;;
46757;SDS011;32509;47.750;-3.396;2023-07-02T04:25:49;26.20;;;12.45;;
46757;SDS011;32509;47.750;-3.396;2023-07-02T04:28:15;26.63;;;13.43;;
46757;SDS011;32509;47.750;-3.396;2023-07-02T04:30:42;19.33;;;11.82;;
46757;SDS011;32509;47.750;-3.396;2023-07-02T04:33:08;27.73;;;13.15;;
46757;SDS011;32509;47.750;-3.396;2023-07-02T04:35:34;22.90;;;12.63;;
46757;SDS011;32509;47.750;-3.396;2023-07-02T04:38:00;21.00;;;13.20;;
46757;SDS011;32509;47.750;-3.396;2023-07-02T04:40:26;24.83;;;13.07;;
46757;SDS011;32509;47.750;-3.396;2023-07-02T04:42:52;24.10;;;13.70;;
46757;SDS011;32509;47.750;-3.396;2023-07-02T04:45:23;16.90;;;11.15;;
46757;SDS011;32509;47.750;-3.396;2023-07-02T04:47:50;19.30;;;12.15;;
46757;SDS011;32509;47.750;-3.396;2023-07-02T04:50:16;17.73;;;13.30;;
46757;SDS011;32509;47.750;-3.396;2023-07-02T04:52:45;20.08;;;12.55;;
46757;SDS011;32509;47.750;-3.396;2023-07-02T04:55:11;27.42;;;12.80;;
46757;SDS011;32509;47.750;-3.396;2023-07-02T04:57:36;24.42;;;13.13;;
46757;SDS011;32509;47.750;-3.396;2023-07-02T05:00:03;20.98;;;11.68;;
46757;SDS011;32509;47.750;-3.396;2023-07-02T05:02:30;25.60;;;13.10;;
46757;SDS011;32509;47.750;-3.396;2023-07-02T05:04:56;25.88;;;14.05;;
46757;SDS011;32509;47.750;-3.396;2023-07-02T05:07:22;20.77;;;12.00;;
46757;SDS011;32509;47.750;-3.396;2023-07-02T05:09:48;32.35;;;11.52;;
46757;SDS011;32509;47.750;-3.396;2023-07-02T05:12:16;23.85;;;13.43;;
46757;SDS011;32509;47.750;-3.396;2023-07-02T05:14:42;27.77;;;13.65;;
46757;SDS011;32509;47.750;-3.396;2023-07-02T05:17:08;27.88;;;13.90;;
46757;SDS011;32509;47.750;-3.396;2023-07-02T05:19:33;20.90;;;12.10;;
46757;SDS011;32509;47.750;-3.396;2023-07-02T05:21:59;28.40;;;13.77;;
46757;SDS011;32509;47.750;-3.396;2023-07-02T05:24:25;20.50;;;12.35;;
46757;SDS011;32509;47.750;-3.396;2023-07-02T05:26:51;19.52;;;11.63;;
46757;SDS011;32509;47.750;-3.396;2023-07-02T05:29:16;26.20;;;13.82;;
46757;SDS011;32509;47.750;-3.396;2023-07-02T05:31:42;28.40;;;12.57;;
46757;SDS011;32509;47.750;-3.396;2023-07-02T05:34:08;23.13;;;12.82;;
46757;SDS011;32509;47.750;-3.396;2023-07-02T05:36:34;21.83;;;11.75;;
46757;SDS011;32509;47.750;-3.396;2023-07-02T05:38:59;22.85;;;14.15;;
46757;SDS011;32509;47.750;-3.396;2023-07-02T05:41:28;24.85;;;13.00;;
46757;SDS011;32509;47.750;-3.396;2023-07-02T05:43:59;25.65;;;13.25;;
46757;SDS011;32509;47.750;-3.396;2023-07-02T05:46:25;27.83;;;14.25;;
46757;SDS011;32509;47.750;-3.396;2023-07-02T05:48:51;28.77;;;14.60;;
46757;SDS011;32509;47.750;-3.396;2023-07-02T05:51:20;23.58;;;13.30;;
46757;SDS011;32509;47.750;-3.396;2023-07-02T05:53:47;23.38;;;12.98;;
46757;SDS011;32509;47.750;-3.396;2023-07-02T05:56:12;23.63;;;12.82;;
46757;SDS011;32509;47.750;-3.396;2023-07-02T05:58:38;30.55;;;13.00;;
46757;SDS011;32509;47.750;-3.396;2023-07-02T06:01:04;23.80;;;13.45;;
46757;SDS011;32509;47.750;-3.396;2023-07-02T06:03:31;29.27;;;14.18;;
46757;SDS011;32509;47.750;-3.396;2023-07-02T06:05:57;28.95;;;13.80;;
46757;SDS011;32509;47.750;-3.396;2023-07-02T06:08:22;32.97;;;14.32;;
46757;SDS011;32509;47.750;-3.396;2023-07-02T06:10:48;28.85;;;12.52;;
46757;SDS011;32509;47.750;-3.396;2023-07-02T06:13:14;27.58;;;12.23;;
46757;SDS011;32509;47.750;-3.396;2023-07-02T06:15:40;28.60;;;12.68;;
46757;SDS011;32509;47.750;-3.396;2023-07-02T06:18:06;32.95;;;15.25;;
46757;SDS011;32509;47.750;-3.396;2023-07-02T06:20:32;24.92;;;12.25;;
46757;SDS011;32509;47.750;-3.396;2023-07-02T06:22:58;35.33;;;13.02;;
46757;SDS011;32509;47.750;-3.396;2023-07-02T06:25:23;25.48;;;13.15;;
46757;SDS011;32509;47.750;-3.396;2023-07-02T06:27:49;26.42;;;12.80;;
46757;SDS011;32509;47.750;-3.396;2023-07-02T06:30:15;28.75;;;13.02;;
46757;SDS011;32509;47.750;-3.396;2023-07-02T06:32:41;35.95;;;14.05;;
46757;SDS011;32509;47.750;-3.396;2023-07-02T06:35:07;25.88;;;13.52;;
46757;SDS011;32509;47.750;-3.396;2023-07-02T06:37:33;31.25;;;13.93;;
46757;SDS011;32509;47.750;-3.396;2023-07-02T06:39:59;28.17;;;13.13;;
46757;SDS011;32509;47.750;-3.396;2023-07-02T06:42:25;26.70;;;12.38;;
46757;SDS011;32509;47.750;-3.396;2023-07-02T06:44:51;28.55;;;13.38;;
46757;SDS011;32509;47.750;-3.396;2023-07-02T06:47:16;27.00;;;12.25;;
46757;SDS011;32509;47.750;-3.396;2023-07-02T06:49:42;28.35;;;13.48;;
46757;SDS011;32509;47.750;-3.396;2023-07-02T06:52:08;22.75;;;12.30;;
46757;SDS011;32509;47.750;-3.396;2023-07-02T06:54:34;30.70;;;12.77;;
46757;SDS011;32509;47.750;-3.396;2023-07-02T06:57:00;24.33;;;11.77;;
46757;SDS011;32509;47.750;-3.396;2023-07-02T06:59:26;27.42;;;13.75;;
46757;SDS011;32509;47.750;-3.396;2023-07-02T07:01:52;31.30;;;12.00;;
46757;SDS011;32509;47.750;-3.396;2023-07-02T07:04:18;24.80;;;12.63;;
46757;SDS011;32509;47.750;-3.396;2023-07-02T07:06:43;29.45;;;13.35;;
46757;SDS011;32509;47.750;-3.396;2023-07-02T07:09:09;34.95;;;12.98;;
46757;SDS011;32509;47.750;-3.396;2023-07-02T07:11:35;24.73;;;10.82;;
46757;SDS011;32509;47.750;-3.396;2023-07-02T07:14:01;26.30;;;14.27;;
46757;SDS011;32509;47.750;-3.396;2023-07-02T07:16:27;29.13;;;12.23;;
46757;SDS011;32509;47.750;-3.396;2023-07-02T07:18:52;29.88;;;12.07;;
46757;SDS011;32509;47.750;-3.396;2023-07-02T07:21:18;35.58;;;11.98;;
46757;SDS011;32509;47.750;-3.396;2023-07-02T07:23:44;27.58;;;13.00;;
46757;SDS011;32509;47.750;-3.396;2023-07-02T07:26:10;18.10;;;10.82;;
46757;SDS011;32509;47.750;-3.396;2023-07-02T07:28:36;27.95;;;12.75;;
46757;SDS011;32509;47.750;-3.396;2023-07-02T07:31:02;18.92;;;12.02;;
46757;SDS011;32509;47.750;-3.396;2023-07-02T07:33:27;28.65;;;12.82;;
46757;SDS011;32509;47.750;-3.396;2023-07-02T07:35:53;26.73;;;12.57;;
46757;SDS011;32509;47.750;-3.396;2023-07-02T07:38:19;35.45;;;13.50;;
46757;SDS011;32509;47.750;-3.396;2023-07-02T07:40:45;23.52;;;11.98;;
46757;SDS011;32509;47.750;-3.396;2023-07-02T07:43:11;23.33;;;12.02;;
46757;SDS011;32509;47.750;-3.396;2023-07-02T07:45:37;18.02;;;11.32;;
46757;SDS011;32509;47.750;-3.396;2023-07-02T07:48:06;25.48;;;12.10;;
46757;SDS011;32509;47.750;-3.396;2023-07-02T07:50:32;27.75;;;13.73;;
46757;SDS011;32509;47.750;-3.396;2023-07-02T07:53:00;24.73;;;11.95;;
46757;SDS011;32509;47.750;-3.396;2023-07-02T07:55:26;25.70;;;12.10;;
46757;SDS011;32509;47.750;-3.396;2023-07-02T07:57:52;26.42;;;12.60;;
46757;SDS011;32509;47.750;-3.396;2023-07-02T08:00:17;25.15;;;12.20;;
46757;SDS011;32509;47.750;-3.396;2023-07-02T08:02:44;24.58;;;13.27;;
46757;SDS011;32509;47.750;-3.396;2023-07-02T08:05:12;17.65;;;10.20;;
46757;SDS011;32509;47.750;-3.396;2023-07-02T08:07:38;24.88;;;12.35;;
46757;SDS011;32509;47.750;-3.396;2023-07-02T08:10:05;30.88;;;12.75;;
46757;SDS011;32509;47.750;-3.396;2023-07-02T08:12:33;25.55;;;12.55;;
46757;SDS011;32509;47.750;-3.396;2023-07-02T08:14:59;32.25;;;12.85;;
46757;SDS011;32509;47.750;-3.396;2023-07-02T08:17:25;23.02;;;10.07;;
46757;SDS011;32509;47.750;-3.396;2023-07-02T08:19:50;28.77;;;11.00;;
46757;SDS011;32509;47.750;-3.396;2023-07-02T08:22:16;16.30;;;9.80;;
46757;SDS011;32509;47.750;-3.396;2023-07-02T08:24:42;27.83;;;10.80;;
46757;SDS011;32509;47.750;-3.396;2023-07-02T08:27:08;21.73;;;10.93;;
46757;SDS011;32509;47.750;-3.396;2023-07-02T08:29:35;24.67;;;11.27;;
46757;SDS011;32509;47.750;-3.396;2023-07-02T08:32:01;31.73;;;11.88;;
46757;SDS011;32509;47.750;-3.396;2023-07-02T08:34:26;26.88;;;10.98;;
46757;SDS011;32509;47.750;-3.396;2023-07-02T08:36:52;26.70;;;12.30;;
46757;SDS011;32509;47.750;-3.396;2023-07-02T08:39:19;25.80;;;12.70;;
46757;SDS011;32509;47.750;-3.396;2023-07-02T08:41:45;24.08;;;10.77;;
46757;SDS011;32509;47.750;-3.396;2023-07-02T08:44:12;25.67;;;13.18;;
46757;SDS011;32509;47.750;-3.396;2023-07-02T08:46:41;28.67;;;11.02;;
46757;SDS011;32509;47.750;-3.396;2023-07-02T08:49:08;23.05;;;12.05;;
46757;SDS011;32509;47.750;-3.396;2023-07-02T08:51:34;24.98;;;11.65;;
46757;SDS011;32509;47.750;-3.396;2023-07-02T08:54:00;24.40;;;11.02;;
46757;SDS011;32509;47.750;-3.396;2023-07-02T08:56:27;20.02;;;10.90;;
46757;SDS011;32509;47.750;-3.396;2023-07-02T08:58:53;30.13;;;10.88;;
46757;SDS011;32509;47.750;-3.396;2023-07-02T09:01:19;25.90;;;10.75;;
46757;SDS011;32509;47.750;-3.396;2023-07-02T09:03:45;22.75;;;11.63;;
46757;SDS011;32509;47.750;-3.396;2023-07-02T09:06:11;27.58;;;12.45;;
46757;SDS011;32509;47.750;-3.396;2023-07-02T09:08:37;25.23;;;10.63;;
46757;SDS011;32509;47.750;-3.396;2023-07-02T09:11:07;25.02;;;11.23;;
46757;SDS011;32509;47.750;-3.396;2023-07-02T09:16:23;26.98;;;11.25;;
46757;SDS011;32509;47.750;-3.396;2023-07-02T09:21:25;25.67;;;11.43;;
46757;SDS011;32509;47.750;-3.396;2023-07-02T09:24:19;25.60;;;11.07;;
46757;SDS011;32509;47.750;-3.396;2023-07-02T09:26:46;24.23;;;12.05;;
46757;SDS011;32509;47.750;-3.396;2023-07-02T09:31:51;22.55;;;11.00;;
46757;SDS011;32509;47.750;-3.396;2023-07-02T09:34:17;25.33;;;11.32;;
46757;SDS011;32509;47.750;-3.396;2023-07-02T09:36:43;23.90;;;11.77;;
46757;SDS011;32509;47.750;-3.396;2023-07-02T09:39:11;26.48;;;10.80;;
46757;SDS011;32509;47.750;-3.396;2023-07-02T09:41:39;34.97;;;12.73;;
46757;SDS011;32509;47.750;-3.396;2023-07-02T09:44:07;20.83;;;10.30;;
46757;SDS011;32509;47.750;-3.396;2023-07-02T09:46:38;26.13;;;11.02;;
46757;SDS011;32509;47.750;-3.396;2023-07-02T09:49:10;22.08;;;11.00;;
46757;SDS011;32509;47.750;-3.396;2023-07-02T09:51:40;25.98;;;11.85;;
46757;SDS011;32509;47.750;-3.396;2023-07-02T09:54:07;33.00;;;13.13;;
46757;SDS011;32509;47.750;-3.396;2023-07-02T09:56:33;28.02;;;13.35;;
46757;SDS011;32509;47.750;-3.396;2023-07-02T09:58:59;25.52;;;11.43;;
46757;SDS011;32509;47.750;-3.396;2023-07-02T10:01:25;36.28;;;13.68;;
46757;SDS011;32509;47.750;-3.396;2023-07-02T10:03:51;26.52;;;11.65;;
46757;SDS011;32509;47.750;-3.396;2023-07-02T10:06:17;21.67;;;11.30;;
46757;SDS011;32509;47.750;-3.396;2023-07-02T10:08:55;31.83;;;13.25;;
46757;SDS011;32509;47.750;-3.396;2023-07-02T10:11:21;29.10;;;12.35;;
46757;SDS011;32509;47.750;-3.396;2023-07-02T10:13:59;30.83;;;12.65;;
46757;SDS011;32509;47.750;-3.396;2023-07-02T10:16:25;27.15;;;10.90;;
46757;SDS011;32509;47.750;-3.396;2023-07-02T10:19:07;30.13;;;13.10;;
46757;SDS011;32509;47.750;-3.396;2023-07-02T10:21:39;25.98;;;10.85;;
46757;SDS011;32509;47.750;-3.396;2023-07-02T10:24:08;20.70;;;10.35;;
46757;SDS011;32509;47.750;-3.396;2023-07-02T10:26:35;25.65;;;11.85;;
46757;SDS011;32509;47.750;-3.396;2023-07-02T10:29:01;21.73;;;11.95;;
46757;SDS011;32509;47.750;-3.396;2023-07-02T10:31:27;25.17;;;10.80;;
46757;SDS011;32509;47.750;-3.396;2023-07-02T10:33:53;28.45;;;13.82;;
46757;SDS011;32509;47.750;-3.396;2023-07-02T10:36:23;24.52;;;12.13;;
46757;SDS011;32509;47.750;-3.396;2023-07-02T10:38:50;28.33;;;12.07;;
46757;SDS011;32509;47.750;-3.396;2023-07-02T10:41:23;18.05;;;11.23;;
46757;SDS011;32509;47.750;-3.396;2023-07-02T10:43:51;21.23;;;11.38;;
46757;SDS011;32509;47.750;-3.396;2023-07-02T10:46:22;30.02;;;13.77;;
46757;SDS011;32509;47.750;-3.396;2023-07-02T10:48:55;24.25;;;11.38;;
46757;SDS011;32509;47.750;-3.396;2023-07-02T10:54:01;33.85;;;12.00;;
46757;SDS011;32509;47.750;-3.396;2023-07-02T10:56:29;26.08;;;11.77;;
46757;SDS011;32509;47.750;-3.396;2023-07-02T10:58:56;23.42;;;10.85;;
46757;SDS011;32509;47.750;-3.396;2023-07-02T11:01:22;25.55;;;12.80;;
46757;SDS011;32509;47.750;-3.396;2023-07-02T11:03:55;25.70;;;11.88;;
46757;SDS011;32509;47.750;-3.396;2023-07-02T11:06:25;21.08;;;10.02;;
46757;SDS011;32509;47.750;-3.396;2023-07-02T11:08:52;22.08;;;10.93;;
46757;SDS011;32509;47.750;-3.396;2023-07-02T11:11:20;29.92;;;11.70;;
46757;SDS011;32509;47.750;-3.396;2023-07-02T11:13:48;20.33;;;9.70;;
46757;SDS011;32509;47.750;-3.396;2023-07-02T11:16:18;16.90;;;9.95;;
46757;SDS011;32509;47.750;-3.396;2023-07-02T11:18:54;27.10;;;10.18;;
46757;SDS011;32509;47.750;-3.396;2023-07-02T11:21:49;22.30;;;11.43;;
46757;SDS011;32509;47.750;-3.396;2023-07-02T11:24:25;20.48;;;12.60;;
46757;SDS011;32509;47.750;-3.396;2023-07-02T11:26:53;27.70;;;12.82;;
46757;SDS011;32509;47.750;-3.396;2023-07-02T11:29:19;23.67;;;10.80;;
46757;SDS011;32509;47.750;-3.396;2023-07-02T11:31:45;26.60;;;11.25;;
46757;SDS011;32509;47.750;-3.396;2023-07-02T11:34:15;22.95;;;11.88;;
46757;SDS011;32509;47.750;-3.396;2023-07-02T11:36:42;23.50;;;10.25;;
46757;SDS011;32509;47.750;-3.396;2023-07-02T11:39:10;19.60;;;10.30;;
46757;SDS011;32509;47.750;-3.396;2023-07-02T11:41:41;26.52;;;12.45;;
46757;SDS011;32509;47.750;-3.396;2023-07-02T11:44:10;21.98;;;10.85;;
46757;SDS011;32509;47.750;-3.396;2023-07-02T11:46:36;21.80;;;11.57;;
46757;SDS011;32509;47.750;-3.396;2023-07-02T11:49:02;22.52;;;11.57;;
46757;SDS011;32509;47.750;-3.396;2023-07-02T11:51:30;21.77;;;9.68;;
46757;SDS011;32509;47.750;-3.396;2023-07-02T11:53:56;19.30;;;9.73;;
46757;SDS011;32509;47.750;-3.396;2023-07-02T11:56:23;21.30;;;10.38;;
46757;SDS011;32509;47.750;-3.396;2023-07-02T11:58:49;21.55;;;10.73;;
46757;SDS011;32509;47.750;-3.396;2023-07-02T12:01:15;19.23;;;10.48;;
46757;SDS011;32509;47.750;-3.396;2023-07-02T12:03:40;27.45;;;11.48;;
46757;SDS011;32509;47.750;-3.396;2023-07-02T12:06:06;23.40;;;11.50;;
46757;SDS011;32509;47.750;-3.396;2023-07-02T12:08:32;23.38;;;12.02;;
46757;SDS011;32509;47.750;-3.396;2023-07-02T12:10:58;21.20;;;10.82;;
46757;SDS011;32509;47.750;-3.396;2023-07-02T12:13:23;19.52;;;9.77;;
46757;SDS011;32509;47.750;-3.396;2023-07-02T12:15:49;25.20;;;12.38;;
46757;SDS011;32509;47.750;-3.396;2023-07-02T12:18:16;24.90;;;11.55;;
46757;SDS011;32509;47.750;-3.396;2023-07-02T12:20:42;22.17;;;11.10;;
46757;SDS011;32509;47.750;-3.396;2023-07-02T12:23:08;20.27;;;11.10;;
46757;SDS011;32509;47.750;-3.396;2023-07-02T12:25:36;23.73;;;11.60;;
46757;SDS011;32509;47.750;-3.396;2023-07-02T12:28:03;16.48;;;10.27;;
46757;SDS011;32509;47.750;-3.396;2023-07-02T12:30:29;18.40;;;10.32;;
46757;SDS011;32509;47.750;-3.396;2023-07-02T12:32:56;27.88;;;11.25;;
46757;SDS011;32509;47.750;-3.396;2023-07-02T12:35:21;23.33;;;11.85;;
46757;SDS011;32509;47.750;-3.396;2023-07-02T12:37:51;19.45;;;10.52;;
46757;SDS011;32509;47.750;-3.396;2023-07-02T12:40:18;22.67;;;10.65;;
46757;SDS011;32509;47.750;-3.396;2023-07-02T12:42:45;26.08;;;11.75;;
46757;SDS011;32509;47.750;-3.396;2023-07-02T12:45:12;21.90;;;10.40;;
46757;SDS011;32509;47.750;-3.396;2023-07-02T12:47:39;26.65;;;10.98;;
46757;SDS011;32509;47.750;-3.396;2023-07-02T12:50:06;18.55;;;10.32;;
46757;SDS011;32509;47.750;-3.396;2023-07-02T12:52:32;18.73;;;10.30;;
46757;SDS011;32509;47.750;-3.396;2023-07-02T12:54:59;23.95;;;11.88;;
46757;SDS011;32509;47.750;-3.396;2023-07-02T12:57:25;19.58;;;10.15;;
46757;SDS011;32509;47.750;-3.396;2023-07-02T12:59:55;19.98;;;10.20;;
46757;SDS011;32509;47.750;-3.396;2023-07-02T13:02:21;22.60;;;11.40;;
46757;SDS011;32509;47.750;-3.396;2023-07-02T13:04:48;22.40;;;11.80;;
46757;SDS011;32509;47.750;-3.396;2023-07-02T13:07:14;20.15;;;10.95;;
46757;SDS011;32509;47.750;-3.396;2023-07-02T13:09:40;20.00;;;10.20;;
46757;SDS011;32509;47.750;-3.396;2023-07-02T13:12:06;13.93;;;9.38;;
46757;SDS011;32509;47.750;-3.396;2023-07-02T13:14:33;22.67;;;10.73;;
46757;SDS011;32509;47.750;-3.396;2023-07-02T13:16:59;23.02;;;9.63;;
46757;SDS011;32509;47.750;-3.396;2023-07-02T13:19:26;19.35;;;11.25;;
46757;SDS011;32509;47.750;-3.396;2023-07-02T13:21:51;20.23;;;10.07;;
46757;SDS011;32509;47.750;-3.396;2023-07-02T13:24:17;18.23;;;10.70;;
46757;SDS011;32509;47.750;-3.396;2023-07-02T13:26:43;21.02;;;9.98;;
46757;SDS011;32509;47.750;-3.396;2023-07-02T13:29:09;16.67;;;10.55;;
46757;SDS011;32509;47.750;-3.396;2023-07-02T13:31:34;21.23;;;9.75;;
46757;SDS011;32509;47.750;-3.396;2023-07-02T13:34:00;22.73;;;11.13;;
46757;SDS011;32509;47.750;-3.396;2023-07-02T13:36:26;18.30;;;10.68;;
46757;SDS011;32509;47.750;-3.396;2023-07-02T13:38:53;22.13;;;10.05;;
46757;SDS011;32509;47.750;-3.396;2023-07-02T13:41:20;19.15;;;9.30;;
46757;SDS011;32509;47.750;-3.396;2023-07-02T13:43:46;20.45;;;10.00;;
46757;SDS011;32509;47.750;-3.396;2023-07-02T13:46:12;21.98;;;10.68;;
46757;SDS011;32509;47.750;-3.396;2023-07-02T13:48:40;16.60;;;9.27;;
46757;SDS011;32509;47.750;-3.396;2023-07-02T13:51:06;16.90;;;10.00;;
46757;SDS011;32509;47.750;-3.396;2023-07-02T13:53:33;20.38;;;10.70;;
46757;SDS011;32509;47.750;-3.396;2023-07-02T13:55:59;19.63;;;10.50;;
46757;SDS011;32509;47.750;-3.396;2023-07-02T13:58:25;17.58;;;10.65;;
46757;SDS011;32509;47.750;-3.396;2023-07-02T14:00:51;22.35;;;10.95;;
46757;SDS011;32509;47.750;-3.396;2023-07-02T14:03:16;21.63;;;10.85;;
46757;SDS011;32509;47.750;-3.396;2023-07-02T14:05:42;17.92;;;9.88;;
46757;SDS011;32509;47.750;-3.396;2023-07-02T14:08:09;21.33;;;11.07;;
46757;SDS011;32509;47.750;-3.396;2023-07-02T14:10:34;18.42;;;10.55;;
46757;SDS011;32509;47.750;-3.396;2023-07-02T14:13:00;21.85;;;10.90;;
46757;SDS011;32509;47.750;-3.396;2023-07-02T14:15:26;19.80;;;11.15;;
46757;SDS011;32509;47.750;-3.396;2023-07-02T14:17:52;23.45;;;11.30;;